Time;durP1;ratioP1;P1;durP2;ratioP2;P2;SDS_P1;SDS_P2;PMS_P1;PMS_P2;Temp;Humidity;BMP_temperature;BMP_pressure;BME280_temperature;BME280_humidity;BME280_pressure;Samples;Min_cycle;Max_cycle;Signal;HPM_P1;HPM_P2
2023/08/13 00:02:08;;;;;;;14.23;3.22;;;16.40;99.90;;;;;;5047411;28;20097;-78
2023/08/13 00:04:34;;;;;;;10.60;2.30;;;16.40;99.90;;;;;;5031704;28;20090;-77
2023/08/13 00:07:00;;;;;;;9.77;2.67;;;16.40;99.90;;;;;;5048628;28;20032;-76
2023/08/13 00:09:26;;;;;;;11.18;2.35;;;16.40;99.90;;;;;;5065789;28;20495;-77
2023/08/13 00:11:53;;;;;;;11.27;2.58;;;16.40;99.90;;;;;;5074588;28;20488;-77
2023/08/13 00:14:19;;;;;;;11.43;2.72;;;16.40;99.90;;;;;;5050194;28;20042;-77
2023/08/13 00:16:45;;;;;;;10.88;2.72;;;16.40;99.90;;;;;;5050052;28;20039;-77
2023/08/13 00:19:11;;;;;;;12.05;2.80;;;16.40;99.90;;;;;;5065233;28;20036;-77
2023/08/13 00:21:36;;;;;;;9.93;2.50;;;16.30;99.90;;;;;;5062110;28;20040;-77
2023/08/13 00:24:02;;;;;;;10.95;3.08;;;16.40;99.90;;;;;;5066346;28;20593;-77
2023/08/13 00:26:28;;;;;;;10.30;2.40;;;16.40;99.90;;;;;;5030408;28;20042;-77
2023/08/13 00:28:54;;;;;;;11.80;2.60;;;16.40;99.90;;;;;;5036728;28;20111;-78
2023/08/13 00:31:19;;;;;;;10.27;2.55;;;16.40;99.90;;;;;;5064460;28;20523;-77
2023/08/13 00:33:45;;;;;;;10.88;2.78;;;16.40;99.90;;;;;;5067555;28;20064;-77
2023/08/13 00:36:11;;;;;;;13.15;2.70;;;16.40;99.90;;;;;;5045056;28;20509;-77
2023/08/13 00:38:36;;;;;;;12.13;2.60;;;16.40;99.90;;;;;;5066090;28;20063;-77
2023/08/13 00:41:02;;;;;;;12.02;2.55;;;16.40;99.90;;;;;;5065525;28;20048;-77
2023/08/13 00:43:28;;;;;;;13.60;2.70;;;16.40;99.90;;;;;;5049477;28;20048;-77
2023/08/13 00:45:54;;;;;;;11.23;2.70;;;16.30;99.90;;;;;;5049844;28;20048;-77
2023/08/13 00:48:21;;;;;;;13.48;2.90;;;16.40;99.90;;;;;;5051718;28;20036;-77
2023/08/13 00:50:47;;;;;;;14.18;2.78;;;16.40;99.90;;;;;;5047058;28;20075;-77
2023/08/13 00:53:14;;;;;;;11.10;2.83;;;16.30;99.90;;;;;;5067411;28;20044;-77
2023/08/13 00:55:40;;;;;;;11.88;2.80;;;16.30;99.90;;;;;;5066913;28;20040;-77
2023/08/13 00:58:06;;;;;;;13.90;2.70;;;16.30;99.90;;;;;;5066025;28;20051;-78
2023/08/13 01:00:32;;;;;;;12.10;2.60;;;16.30;99.90;;;;;;5042939;28;20040;-77
2023/08/13 01:02:58;;;;;;;10.60;2.88;;;16.30;99.90;;;;;;5069466;28;20512;-78
2023/08/13 01:05:34;;;;;;;11.90;2.53;;;16.30;99.90;;;;;;5068476;28;20040;-77
2023/08/13 01:08:33;;;;;;;11.90;2.85;;;16.30;99.90;;;;;;5066582;28;20500;-77
2023/08/13 01:11:09;;;;;;;11.57;2.70;;;16.30;99.90;;;;;;5040522;28;20108;-77
2023/08/13 01:13:42;;;;;;;10.30;3.10;;;16.30;99.90;;;;;;5068376;28;20040;-77
2023/08/13 01:16:09;;;;;;;15.13;3.28;;;16.30;99.90;;;;;;5053098;28;20040;-77
2023/08/13 01:18:36;;;;;;;14.15;3.50;;;16.30;99.90;;;;;;5052489;28;20035;-78
2023/08/13 01:21:02;;;;;;;9.95;2.63;;;16.30;99.90;;;;;;5067355;28;20152;-77
2023/08/13 01:23:28;;;;;;;12.70;2.80;;;16.30;99.90;;;;;;5051116;28;20119;-77
2023/08/13 01:26:02;;;;;;;8.73;2.50;;;16.40;99.90;;;;;;5033935;28;20035;-77
2023/08/13 01:28:41;;;;;;;13.65;2.85;;;16.40;99.90;;;;;;5066249;28;20542;-77
2023/08/13 01:31:24;;;;;;;12.07;2.55;;;16.40;99.90;;;;;;5049329;28;20036;-77
2023/08/13 01:33:52;;;;;;;13.35;3.00;;;16.40;99.90;;;;;;5068698;28;20044;-77
2023/08/13 01:36:19;;;;;;;14.73;2.97;;;16.40;99.90;;;;;;5067876;28;20121;-78
2023/08/13 01:38:46;;;;;;;13.23;2.72;;;16.40;99.90;;;;;;5066571;28;20512;-77
2023/08/13 01:41:12;;;;;;;13.10;2.95;;;16.40;99.90;;;;;;5034882;28;20086;-77
2023/08/13 01:43:38;;;;;;;10.57;2.80;;;16.40;99.90;;;;;;5061706;28;20036;-77
2023/08/13 01:46:03;;;;;;;11.27;3.55;;;16.30;99.90;;;;;;5067693;28;20192;-77
2023/08/13 01:48:29;;;;;;;13.95;3.22;;;16.30;99.90;;;;;;5031999;28;20398;-77
2023/08/13 01:50:55;;;;;;;13.30;3.00;;;15.50;99.90;;;;;;5063114;28;20462;-77
2023/08/13 01:53:21;;;;;;;14.82;3.22;;;16.40;99.90;;;;;;5062480;28;20081;-77
2023/08/13 01:55:47;;;;;;;11.90;3.38;;;16.30;99.90;;;;;;5043287;28;20482;-77
2023/08/13 01:58:12;;;;;;;11.40;3.35;;;16.30;99.90;;;;;;5066645;28;20047;-77
2023/08/13 02:00:38;;;;;;;10.57;2.85;;;16.30;99.90;;;;;;5051381;28;20056;-77
2023/08/13 02:03:04;;;;;;;11.05;3.45;;;16.30;99.90;;;;;;5062133;28;20406;-77
2023/08/13 02:05:29;;;;;;;11.43;3.00;;;16.30;99.90;;;;;;5043339;28;20455;-77
2023/08/13 02:07:56;;;;;;;14.75;3.22;;;16.30;99.90;;;;;;5068061;28;20067;-77
2023/08/13 02:10:22;;;;;;;13.50;3.13;;;16.20;99.90;;;;;;5068128;28;20758;-77
2023/08/13 02:12:47;;;;;;;12.75;2.95;;;16.20;99.90;;;;;;5047574;28;20044;-77
2023/08/13 02:15:13;;;;;;;18.15;3.40;;;16.20;99.90;;;;;;5051646;28;20074;-78
2023/08/13 02:17:39;;;;;;;10.45;2.80;;;16.20;99.90;;;;;;5066970;28;20454;-78
2023/08/13 02:20:05;;;;;;;16.70;3.42;;;16.20;99.90;;;;;;5068768;28;20523;-77
2023/08/13 02:22:31;;;;;;;12.15;2.92;;;16.20;99.90;;;;;;5065715;28;20036;-77
2023/08/13 02:24:57;;;;;;;10.55;2.70;;;16.20;99.90;;;;;;5034487;28;20039;-78
2023/08/13 02:27:22;;;;;;;13.75;3.60;;;16.20;99.90;;;;;;5024233;28;20033;-77
2023/08/13 02:29:48;;;;;;;12.40;2.85;;;16.20;99.90;;;;;;5049906;28;20036;-77
2023/08/13 02:32:14;;;;;;;10.05;2.85;;;16.20;99.90;;;;;;5045103;28;20047;-77
2023/08/13 02:34:46;;;;;;;11.57;3.10;;;16.20;99.90;;;;;;5064370;28;20043;-77
2023/08/13 02:37:13;;;;;;;13.35;2.90;;;16.20;99.90;;;;;;5066861;28;20708;-77
2023/08/13 02:39:39;;;;;;;10.23;2.72;;;16.10;99.90;;;;;;5050070;28;20039;-77
2023/08/13 02:42:04;;;;;;;13.75;3.28;;;16.20;99.90;;;;;;5066185;28;20044;-77
2023/08/13 02:44:30;;;;;;;12.30;3.10;;;16.20;99.90;;;;;;5049184;28;20032;-77
2023/08/13 02:46:56;;;;;;;11.27;2.80;;;16.20;99.90;;;;;;5061670;28;20040;-77
2023/08/13 02:49:22;;;;;;;11.85;2.90;;;16.20;99.90;;;;;;5063210;28;20068;-77
2023/08/13 02:51:48;;;;;;;13.23;2.70;;;16.10;99.90;;;;;;5026444;28;20324;-77
2023/08/13 02:54:13;;;;;;;14.57;3.10;;;16.20;99.90;;;;;;5032176;28;20051;-77
2023/08/13 02:56:41;;;;;;;13.75;3.28;;;16.20;99.90;;;;;;5062701;28;20040;-77
2023/08/13 02:59:07;;;;;;;14.10;3.05;;;16.10;99.90;;;;;;5064855;28;20028;-77
2023/08/13 03:01:33;;;;;;;22.25;3.95;;;16.10;99.90;;;;;;5061563;28;20039;-78
2023/08/13 03:04:02;;;;;;;17.80;3.47;;;16.20;99.90;;;;;;5047499;28;20093;-77
2023/08/13 03:06:29;;;;;;;9.00;2.85;;;16.20;99.90;;;;;;5047905;28;20135;-77
2023/08/13 03:08:55;;;;;;;14.35;3.45;;;16.20;99.90;;;;;;5059729;28;20085;-77
2023/08/13 03:11:21;;;;;;;13.20;3.22;;;16.20;99.90;;;;;;5047361;28;20040;-77
2023/08/13 03:13:47;;;;;;;14.05;3.42;;;16.20;99.90;;;;;;5059888;28;20447;-77
2023/08/13 03:16:13;;;;;;;11.32;3.22;;;16.10;99.90;;;;;;5044449;28;20040;-77
2023/08/13 03:18:40;;;;;;;16.67;3.65;;;16.10;99.90;;;;;;5067209;28;20032;-77
2023/08/13 03:21:06;;;;;;;16.58;3.28;;;16.10;99.90;;;;;;5067011;28;20036;-78
2023/08/13 03:23:32;;;;;;;14.82;2.97;;;16.10;99.90;;;;;;5065519;28;20066;-77
2023/08/13 03:25:58;;;;;;;15.40;3.22;;;16.10;99.90;;;;;;5054158;28;20047;-77
2023/08/13 03:28:24;;;;;;;11.48;3.00;;;16.10;99.90;;;;;;5051991;28;20032;-77
2023/08/13 03:30:56;;;;;;;10.55;3.00;;;16.00;99.90;;;;;;5066517;28;20543;-77
2023/08/13 03:33:22;;;;;;;14.65;3.20;;;16.00;99.90;;;;;;5064720;28;20516;-77
2023/08/13 03:35:48;;;;;;;11.77;3.47;;;16.00;99.90;;;;;;5064217;28;20040;-77
2023/08/13 03:38:13;;;;;;;13.50;2.92;;;16.00;99.90;;;;;;5050156;28;20067;-77
2023/08/13 03:40:39;;;;;;;14.88;3.20;;;16.00;99.90;;;;;;5065453;28;20032;-77
2023/08/13 03:43:05;;;;;;;12.90;3.05;;;16.00;99.90;;;;;;5031279;28;20566;-77
2023/08/13 03:45:31;;;;;;;12.35;3.22;;;16.00;99.90;;;;;;5048184;28;20548;-77
2023/08/13 03:47:56;;;;;;;16.90;2.92;;;15.90;99.90;;;;;;5067192;28;20497;-77
2023/08/13 03:50:22;;;;;;;12.18;3.30;;;15.90;99.90;;;;;;5046265;28;20433;-77
2023/08/13 03:52:48;;;;;;;10.60;2.88;;;15.90;99.90;;;;;;5066128;28;20036;-77
2023/08/13 03:55:13;;;;;;;12.60;3.20;;;15.90;99.90;;;;;;5027946;28;20036;-77
2023/08/13 03:57:39;;;;;;;12.55;3.20;;;15.90;99.90;;;;;;5050317;28;20032;-77
2023/08/13 04:00:05;;;;;;;13.85;3.30;;;15.90;99.90;;;;;;5063075;28;20044;-77
2023/08/13 04:02:39;;;;;;;13.55;3.17;;;15.90;99.90;;;;;;5049035;28;20689;-77
2023/08/13 04:05:06;;;;;;;12.32;3.10;;;15.90;99.90;;;;;;5063107;28;20928;-77
2023/08/13 04:07:31;;;;;;;14.68;3.65;;;15.90;99.90;;;;;;5029770;28;20040;-77
2023/08/13 04:09:57;;;;;;;13.02;3.28;;;15.80;99.90;;;;;;5064521;28;20063;-77
2023/08/13 04:12:23;;;;;;;14.73;3.72;;;15.90;99.90;;;;;;5030363;28;20047;-77
2023/08/13 04:14:48;;;;;;;12.88;3.25;;;15.90;99.90;;;;;;5064455;28;20088;-77
2023/08/13 04:17:14;;;;;;;13.40;3.08;;;15.80;99.90;;;;;;5064174;28;20040;-77
2023/08/13 04:19:40;;;;;;;12.43;3.40;;;15.90;99.90;;;;;;5065693;28;20519;-77
2023/08/13 04:22:05;;;;;;;10.48;2.90;;;15.90;99.90;;;;;;5062351;28;20101;-77
2023/08/13 04:24:31;;;;;;;14.38;3.03;;;15.90;99.90;;;;;;5064815;28;20035;-77
2023/08/13 04:26:57;;;;;;;11.20;2.97;;;15.90;99.90;;;;;;5030363;28;20029;-77
2023/08/13 04:29:22;;;;;;;11.32;3.15;;;15.90;99.90;;;;;;5045501;28;20040;-77
2023/08/13 04:31:48;;;;;;;11.20;3.10;;;15.90;99.90;;;;;;5046282;28;20039;-77
2023/08/13 04:34:14;;;;;;;9.77;2.92;;;15.90;99.90;;;;;;5043205;28;20044;-77
2023/08/13 04:36:40;;;;;;;13.40;2.90;;;16.00;99.90;;;;;;5064902;28;20051;-77
2023/08/13 04:39:06;;;;;;;11.27;3.30;;;16.00;99.90;;;;;;5069974;28;20060;-78
2023/08/13 04:41:32;;;;;;;10.55;2.95;;;16.00;99.90;;;;;;5069259;28;20040;-77
2023/08/13 04:43:58;;;;;;;13.10;3.15;;;16.00;99.90;;;;;;5044067;28;20067;-78
2023/08/13 04:46:23;;;;;;;16.17;3.42;;;16.10;99.90;;;;;;5050922;28;20505;-78
2023/08/13 04:48:49;;;;;;;10.98;3.25;;;16.10;99.90;;;;;;5069636;28;20256;-77
2023/08/13 04:51:15;;;;;;;11.80;2.92;;;16.10;99.90;;;;;;5035779;28;20408;-77
2023/08/13 04:53:42;;;;;;;14.68;3.20;;;16.10;99.90;;;;;;5069351;28;20039;-77
2023/08/13 04:56:08;;;;;;;11.23;2.75;;;16.10;99.90;;;;;;5067029;28;20336;-77
2023/08/13 04:58:35;;;;;;;18.50;3.05;;;16.10;99.90;;;;;;5030660;28;20253;-77
2023/08/13 05:01:02;;;;;;;13.75;3.20;;;16.10;99.90;;;;;;5052877;28;20150;-77
2023/08/13 05:03:28;;;;;;;9.10;2.72;;;16.20;99.90;;;;;;5067310;28;20040;-77
2023/08/13 05:05:54;;;;;;;15.73;3.35;;;16.20;99.90;;;;;;5078420;28;20036;-77
2023/08/13 05:08:20;;;;;;;13.57;3.30;;;16.30;99.90;;;;;;5035587;28;20047;-77
2023/08/13 05:10:46;;;;;;;11.27;3.13;;;16.20;99.90;;;;;;5052020;28;20040;-77
2023/08/13 05:13:13;;;;;;;11.48;2.80;;;16.30;99.90;;;;;;5049455;28;20040;-77
2023/08/13 05:15:39;;;;;;;10.95;3.33;;;16.30;99.90;;;;;;5049244;28;20382;-78
2023/08/13 05:18:05;;;;;;;11.05;3.35;;;16.30;99.90;;;;;;5066986;28;20039;-77
2023/08/13 05:20:31;;;;;;;11.40;2.97;;;16.40;99.90;;;;;;5063202;28;21772;-78
2023/08/13 05:22:57;;;;;;;12.75;2.85;;;16.40;99.90;;;;;;5051872;28;20193;-78
2023/08/13 05:25:23;;;;;;;10.40;2.80;;;16.50;99.90;;;;;;5048237;28;20028;-77
2023/08/13 05:27:49;;;;;;;10.57;3.15;;;16.50;99.90;;;;;;5047197;28;20105;-77
2023/08/13 05:30:14;;;;;;;11.93;2.83;;;16.50;99.90;;;;;;5044841;28;20043;-77
2023/08/13 05:32:40;;;;;;;11.95;3.10;;;16.50;99.90;;;;;;5066737;28;20475;-77
2023/08/13 05:35:06;;;;;;;11.07;2.90;;;16.50;99.90;;;;;;5013086;28;20045;-77
2023/08/13 05:37:33;;;;;;;11.65;3.00;;;16.60;99.90;;;;;;5052031;28;20189;-78
2023/08/13 05:39:58;;;;;;;13.02;2.78;;;16.60;99.90;;;;;;5065534;28;20602;-77
2023/08/13 05:42:24;;;;;;;11.50;3.08;;;16.60;99.90;;;;;;5048535;28;20044;-77
2023/08/13 05:44:50;;;;;;;10.70;3.00;;;16.60;99.90;;;;;;5047863;28;20040;-77
2023/08/13 05:47:15;;;;;;;11.32;3.15;;;16.70;99.90;;;;;;5061711;28;20105;-77
2023/08/13 05:49:41;;;;;;;12.07;3.22;;;16.70;99.90;;;;;;5079668;28;20048;-78
2023/08/13 05:52:07;;;;;;;14.52;3.28;;;16.70;99.90;;;;;;5045950;28;20043;-77
2023/08/13 05:54:32;;;;;;;12.45;3.38;;;16.70;99.90;;;;;;5043993;28;20358;-78
2023/08/13 05:56:58;;;;;;;10.35;3.15;;;16.80;99.90;;;;;;5049586;28;20135;-78
2023/08/13 05:59:24;;;;;;;13.82;3.35;;;16.80;99.90;;;;;;5042994;28;20063;-78
2023/08/13 06:01:50;;;;;;;12.95;3.83;;;16.80;99.90;;;;;;5070299;28;20042;-78
2023/08/13 06:04:15;;;;;;;10.98;3.17;;;16.80;99.90;;;;;;5054948;28;20041;-77
2023/08/13 06:06:41;;;;;;;13.32;3.10;;;16.80;99.90;;;;;;5072607;28;20068;-77
2023/08/13 06:09:08;;;;;;;15.13;3.17;;;16.90;99.90;;;;;;5067025;28;20085;-77
2023/08/13 06:11:34;;;;;;;10.63;2.97;;;16.80;99.90;;;;;;5052076;28;20040;-78
2023/08/13 06:14:00;;;;;;;11.32;3.08;;;16.90;99.90;;;;;;5069642;28;20130;-78
2023/08/13 06:16:25;;;;;;;13.27;3.65;;;16.90;99.90;;;;;;5035741;28;20043;-77
2023/08/13 06:18:51;;;;;;;11.90;3.38;;;16.90;99.90;;;;;;5069749;28;20047;-77
2023/08/13 06:21:17;;;;;;;12.57;3.47;;;16.90;99.90;;;;;;5053600;28;20106;-78
2023/08/13 06:23:43;;;;;;;10.75;3.53;;;16.90;99.90;;;;;;5072371;28;20040;-78
2023/08/13 06:26:08;;;;;;;12.13;3.65;;;16.90;99.90;;;;;;5060154;28;20036;-78
2023/08/13 06:28:35;;;;;;;14.95;3.40;;;16.80;99.90;;;;;;5069924;28;20071;-78
2023/08/13 06:31:01;;;;;;;10.60;2.92;;;16.80;99.90;;;;;;5052114;28;20051;-77
2023/08/13 06:33:27;;;;;;;9.77;3.05;;;16.90;99.90;;;;;;5053443;28;20040;-78
2023/08/13 06:35:53;;;;;;;12.05;3.42;;;17.00;99.90;;;;;;5051147;28;20046;-77
2023/08/13 06:38:18;;;;;;;10.23;3.38;;;17.00;99.90;;;;;;5049142;28;20066;-77
2023/08/13 06:40:44;;;;;;;11.32;3.55;;;17.20;99.90;;;;;;5048297;28;20616;-77
2023/08/13 06:43:11;;;;;;;13.93;3.60;;;17.30;99.90;;;;;;5064326;28;20044;-77
2023/08/13 06:45:37;;;;;;;9.35;3.13;;;17.50;99.90;;;;;;5053536;28;20048;-77
2023/08/13 06:48:04;;;;;;;11.52;3.03;;;17.60;99.90;;;;;;5062714;28;20049;-78
2023/08/13 06:50:30;;;;;;;12.18;3.40;;;17.80;99.90;;;;;;5062957;28;20510;-77
2023/08/13 06:52:56;;;;;;;8.85;2.80;;;17.90;99.90;;;;;;5060236;28;20076;-77
2023/08/13 06:55:22;;;;;;;11.43;3.72;;;17.90;99.90;;;;;;5059831;28;20509;-77
2023/08/13 06:57:48;;;;;;;16.35;3.20;;;18.00;99.90;;;;;;5045839;28;20068;-77
2023/08/13 07:00:15;;;;;;;11.27;3.45;;;17.90;99.90;;;;;;5061133;28;20076;-77
2023/08/13 07:02:41;;;;;;;13.98;3.38;;;17.90;99.90;;;;;;5064901;28;20056;-77
2023/08/13 07:05:11;;;;;;;12.10;2.90;;;17.70;99.90;;;;;;5062074;28;20040;-77
2023/08/13 07:07:36;;;;;;;13.00;3.22;;;17.70;99.90;;;;;;5062848;28;20383;-77
2023/08/13 07:10:04;;;;;;;11.15;3.38;;;17.80;99.90;;;;;;5037826;28;20109;-77
2023/08/13 07:12:30;;;;;;;12.02;3.70;;;17.90;99.90;;;;;;5035599;28;20093;-77
2023/08/13 07:14:55;;;;;;;12.90;3.85;;;17.90;99.90;;;;;;5047164;28;20024;-77
2023/08/13 07:17:21;;;;;;;11.20;3.35;;;18.10;99.90;;;;;;5067810;28;20040;-77
2023/08/13 07:19:56;;;;;;;12.88;3.13;;;18.20;99.90;;;;;;5084915;27;20411;-78
2023/08/13 07:22:21;;;;;;;14.68;3.75;;;18.30;99.90;;;;;;5068133;28;20052;-78
2023/08/13 07:24:47;;;;;;;14.68;3.30;;;18.40;99.90;;;;;;5068131;28;20040;-78
2023/08/13 07:27:13;;;;;;;13.85;3.35;;;18.50;99.90;;;;;;5047174;28;20098;-78
2023/08/13 07:29:39;;;;;;;11.88;3.20;;;18.60;99.90;;;;;;5066638;28;20379;-77
2023/08/13 07:32:05;;;;;;;13.93;3.40;;;18.70;99.90;;;;;;5085098;28;20040;-77
2023/08/13 07:34:31;;;;;;;13.73;3.58;;;18.80;99.90;;;;;;5067600;28;20063;-77
2023/08/13 07:36:56;;;;;;;12.43;3.47;;;18.90;99.90;;;;;;5047571;28;20132;-77
2023/08/13 07:39:23;;;;;;;11.52;3.05;;;19.10;99.90;;;;;;5065731;28;20050;-77
2023/08/13 07:41:49;;;;;;;13.10;3.40;;;19.20;99.90;;;;;;5085319;28;20046;-77
2023/08/13 07:44:16;;;;;;;11.85;3.47;;;19.30;99.90;;;;;;5051128;28;20040;-78
2023/08/13 07:46:42;;;;;;;14.65;3.30;;;19.40;99.90;;;;;;5083999;28;20517;-78
2023/08/13 07:49:08;;;;;;;12.50;3.00;;;19.50;99.90;;;;;;5055032;28;20050;-78
2023/08/13 07:51:34;;;;;;;13.25;3.28;;;19.70;99.90;;;;;;5048728;28;20059;-78
2023/08/13 07:54:00;;;;;;;13.50;3.42;;;19.80;99.90;;;;;;5103644;28;20520;-78
2023/08/13 07:56:25;;;;;;;10.48;3.25;;;19.80;99.90;;;;;;5067907;28;20083;-78
2023/08/13 07:58:51;;;;;;;12.85;3.38;;;19.90;99.90;;;;;;5082691;28;20125;-78
2023/08/13 08:01:17;;;;;;;13.25;3.20;;;19.90;99.90;;;;;;5084866;28;20114;-78
2023/08/13 08:03:44;;;;;;;10.32;2.90;;;19.90;99.90;;;;;;5071202;28;20373;-77
2023/08/13 08:06:12;;;;;;;11.68;2.83;;;19.80;99.90;;;;;;5031171;28;20055;-78
2023/08/13 08:08:38;;;;;;;10.65;2.80;;;19.90;99.90;;;;;;5075388;28;20047;-77
2023/08/13 08:11:04;;;;;;;15.70;3.30;;;20.00;99.90;;;;;;5065009;28;20537;-77
2023/08/13 08:13:32;;;;;;;9.48;2.70;;;20.00;99.90;;;;;;5078871;28;20055;-78
2023/08/13 08:15:58;;;;;;;11.00;2.85;;;20.10;99.90;;;;;;5084426;28;20041;-78
2023/08/13 08:18:23;;;;;;;9.75;2.75;;;20.20;99.90;;;;;;5067311;28;20060;-77
2023/08/13 08:20:49;;;;;;;12.23;3.17;;;20.40;99.90;;;;;;5059277;28;20067;-78
2023/08/13 08:23:15;;;;;;;10.95;2.90;;;20.50;99.90;;;;;;5040577;28;20059;-77
2023/08/13 08:25:41;;;;;;;9.73;2.70;;;20.50;99.90;;;;;;5056122;28;20502;-78
2023/08/13 08:28:07;;;;;;;9.23;2.22;;;20.70;99.90;;;;;;5061776;28;20074;-78
2023/08/13 08:30:32;;;;;;;10.20;2.85;;;20.80;99.90;;;;;;5057607;28;20101;-77
2023/08/13 08:32:58;;;;;;;10.27;2.72;;;20.80;99.90;;;;;;5034233;28;20123;-78
2023/08/13 08:35:24;;;;;;;9.70;2.70;;;20.80;99.90;;;;;;5030917;28;20043;-78
2023/08/13 08:37:49;;;;;;;9.40;2.47;;;20.70;99.90;;;;;;5061754;28;20051;-78
2023/08/13 08:40:15;;;;;;;8.95;2.55;;;20.60;99.90;;;;;;5053867;28;20036;-78
2023/08/13 08:42:42;;;;;;;9.20;2.25;;;20.50;99.90;;;;;;5070397;28;20512;-78
2023/08/13 08:45:10;;;;;;;9.20;2.40;;;20.70;99.90;;;;;;5049727;28;20082;-78
2023/08/13 08:47:40;;;;;;;8.48;2.58;;;20.70;99.90;;;;;;5042257;28;20094;-78
2023/08/13 08:50:09;;;;;;;13.02;2.67;;;20.80;99.90;;;;;;5053431;28;20112;-77
2023/08/13 08:52:36;;;;;;;9.75;2.50;;;21.00;99.90;;;;;;5054145;28;20044;-78
2023/08/13 08:55:03;;;;;;;11.02;2.30;;;21.20;99.90;;;;;;5069829;28;20064;-78
2023/08/13 08:57:28;;;;;;;10.48;2.80;;;21.30;99.90;;;;;;5041302;28;20043;-78
2023/08/13 08:59:54;;;;;;;10.65;2.60;;;21.50;99.90;;;;;;5070256;28;20036;-78
2023/08/13 09:02:20;;;;;;;11.43;2.70;;;21.50;99.90;;;;;;5069151;28;20043;-78
2023/08/13 09:04:46;;;;;;;8.48;2.08;;;21.40;99.90;;;;;;5069110;28;20098;-78
2023/08/13 09:07:11;;;;;;;9.02;2.72;;;21.20;99.90;;;;;;5042822;28;20549;-78
2023/08/13 09:09:37;;;;;;;10.27;2.42;;;21.00;99.90;;;;;;5062823;28;20040;-78
2023/08/13 09:12:03;;;;;;;9.95;2.10;;;21.10;99.90;;;;;;5070898;28;20124;-77
2023/08/13 09:14:29;;;;;;;7.93;2.25;;;21.20;99.90;;;;;;5050933;28;20040;-78
2023/08/13 09:16:57;;;;;;;9.20;2.50;;;21.20;99.90;;;;;;5068677;28;20090;-78
2023/08/13 09:19:26;;;;;;;9.10;2.42;;;21.50;99.90;;;;;;5045267;28;20059;-78
2023/08/13 09:21:53;;;;;;;9.07;2.20;;;21.70;99.90;;;;;;5068683;28;20052;-78
2023/08/13 09:24:29;;;;;;;8.02;1.92;;;22.00;99.90;;;;;;5053087;28;20069;-78
2023/08/13 09:26:55;;;;;;;8.85;2.20;;;22.20;99.90;;;;;;5056325;28;20055;-78
2023/08/13 09:29:21;;;;;;;10.20;2.42;;;22.40;99.90;;;;;;5066820;28;20683;-78
2023/08/13 09:31:47;;;;;;;8.95;2.20;;;22.20;99.90;;;;;;5046707;28;20127;-78
2023/08/13 09:34:12;;;;;;;11.05;2.63;;;21.80;99.90;;;;;;5061185;28;20395;-78
2023/08/13 09:36:38;;;;;;;8.50;2.28;;;21.80;99.90;;;;;;5055637;28;20044;-78
2023/08/13 09:39:04;;;;;;;9.65;2.22;;;22.00;99.90;;;;;;5034058;28;20115;-78
2023/08/13 09:41:30;;;;;;;9.32;2.35;;;22.00;99.90;;;;;;5065365;28;20595;-78
2023/08/13 09:44:05;;;;;;;9.23;2.00;;;22.20;99.90;;;;;;5052595;28;20143;-78
2023/08/13 09:46:33;;;;;;;7.43;2.10;;;22.30;99.90;;;;;;5058719;28;20370;-78
2023/08/13 09:49:03;;;;;;;8.20;2.03;;;22.40;99.90;;;;;;5057038;28;20405;-78
2023/08/13 09:51:31;;;;;;;5.95;1.73;;;22.50;99.90;;;;;;5038475;28;20044;-77
2023/08/13 09:54:11;;;;;;;8.70;2.03;;;22.50;99.90;;;;;;5054555;28;20045;-78
2023/08/13 09:56:40;;;;;;;10.15;2.15;;;22.40;99.90;;;;;;5043014;28;20135;-77
2023/08/13 09:59:07;;;;;;;9.88;2.10;;;22.00;99.90;;;;;;5063837;28;20051;-77
2023/08/13 10:01:34;;;;;;;7.40;1.63;;;22.10;99.90;;;;;;5038994;28;20048;-78
2023/08/13 10:04:01;;;;;;;8.35;2.08;;;22.10;99.90;;;;;;5021999;28;20037;-77
2023/08/13 10:06:27;;;;;;;6.05;2.10;;;22.30;99.90;;;;;;5024336;28;20048;-77
2023/08/13 10:08:54;;;;;;;9.98;2.20;;;22.40;99.90;;;;;;5045898;28;20048;-77
2023/08/13 10:11:20;;;;;;;7.90;2.03;;;22.60;99.90;;;;;;5057740;28;20131;-78
2023/08/13 10:13:46;;;;;;;8.18;2.00;;;22.60;99.90;;;;;;5020093;28;20051;-79
2023/08/13 10:16:13;;;;;;;7.97;2.22;;;22.50;99.90;;;;;;5018431;28;20062;-76
2023/08/13 10:18:42;;;;;;;7.72;1.75;;;22.60;99.90;;;;;;5020014;28;20056;-77
2023/08/13 10:21:12;;;;;;;8.85;2.25;;;22.60;99.90;;;;;;5037960;28;20037;-76
2023/08/13 10:23:38;;;;;;;7.13;1.90;;;22.50;99.90;;;;;;5040959;28;20217;-76
2023/08/13 10:26:04;;;;;;;7.00;1.80;;;22.30;99.90;;;;;;5037039;28;20052;-77
2023/08/13 10:28:31;;;;;;;9.05;2.15;;;22.30;99.90;;;;;;5027644;28;20045;-77
2023/08/13 10:31:22;;;;;;;6.32;1.75;;;22.30;99.90;;;;;;5057377;28;20049;-77
2023/08/13 10:34:06;;;;;;;8.07;1.90;;;22.30;99.90;;;;;;5061616;28;20072;-78
2023/08/13 10:36:52;;;;;;;7.25;1.70;;;22.30;99.90;;;;;;5033289;28;20044;-78
2023/08/13 10:39:36;;;;;;;7.20;1.80;;;22.30;99.90;;;;;;5056337;28;20497;-77
2023/08/13 10:42:03;;;;;;;6.20;1.67;;;22.20;99.90;;;;;;5059129;28;20041;-77
2023/08/13 10:44:39;;;;;;;8.00;1.73;;;22.10;99.90;;;;;;5058311;28;20040;-77
2023/08/13 10:47:05;;;;;;;6.60;1.80;;;22.30;99.90;;;;;;5048711;28;20912;-77
2023/08/13 10:49:31;;;;;;;5.57;1.63;;;22.40;99.90;;;;;;5046645;28;20048;-78
2023/08/13 10:52:03;;;;;;;6.00;1.70;;;22.60;99.90;;;;;;5056053;28;20052;-77
2023/08/13 10:54:29;;;;;;;4.53;1.55;;;22.50;99.90;;;;;;5047424;28;20064;-76
2023/08/13 10:56:58;;;;;;;5.78;2.30;;;21.50;99.90;;;;;;5041532;28;20394;-78
2023/08/13 10:59:32;;;;;;;6.38;2.13;;;22.90;99.90;;;;;;5054049;28;20120;-78
2023/08/13 11:02:19;;;;;;;6.90;1.70;;;22.80;99.90;;;;;;5048777;28;20113;-78
2023/08/13 11:04:46;;;;;;;6.93;1.80;;;22.90;99.90;;;;;;5050371;28;20186;-78
2023/08/13 11:07:13;;;;;;;6.78;1.67;;;23.00;99.90;;;;;;5052720;28;20220;-78
2023/08/13 11:09:40;;;;;;;7.85;2.03;;;23.00;99.90;;;;;;5065011;28;20027;-78
2023/08/13 11:12:08;;;;;;;6.53;1.88;;;23.00;99.90;;;;;;5070174;28;20033;-78
2023/08/13 11:14:35;;;;;;;7.35;1.67;;;22.90;99.90;;;;;;5051738;28;20068;-78
2023/08/13 11:17:01;;;;;;;8.18;1.90;;;22.70;99.90;;;;;;5035023;28;20063;-77
2023/08/13 11:19:27;;;;;;;7.22;1.80;;;22.50;99.90;;;;;;5052865;28;20113;-77
2023/08/13 11:21:54;;;;;;;8.88;2.22;;;22.40;99.90;;;;;;5037396;28;20070;-79
2023/08/13 11:24:21;;;;;;;7.00;1.83;;;22.20;99.90;;;;;;5058300;28;20612;-79
2023/08/13 11:26:49;;;;;;;7.28;1.80;;;22.10;99.90;;;;;;5043030;28;20040;-80
2023/08/13 11:29:19;;;;;;;7.90;2.30;;;22.00;99.90;;;;;;5053010;28;20051;-79
2023/08/13 11:31:45;;;;;;;7.75;1.73;;;22.10;99.90;;;;;;5057043;28;20041;-77
2023/08/13 11:34:11;;;;;;;7.70;2.10;;;22.70;99.90;;;;;;5051685;28;20041;-77
2023/08/13 11:36:37;;;;;;;7.75;1.90;;;22.70;99.90;;;;;;5024098;28;20075;-77
2023/08/13 11:39:03;;;;;;;6.88;1.65;;;22.90;99.90;;;;;;5049241;28;20041;-77
2023/08/13 11:41:29;;;;;;;6.60;2.00;;;22.90;99.90;;;;;;5033265;28;20140;-78
2023/08/13 11:43:55;;;;;;;8.88;1.90;;;22.90;99.90;;;;;;5041856;28;20097;-79
2023/08/13 11:46:22;;;;;;;8.25;2.03;;;22.90;99.90;;;;;;5035789;28;20284;-79
2023/08/13 11:48:54;;;;;;;6.18;1.65;;;22.80;99.90;;;;;;5054900;28;20040;-79
2023/08/13 11:51:24;;;;;;;5.00;1.55;;;22.70;99.90;;;;;;5052361;28;20056;-79
2023/08/13 11:53:50;;;;;;;7.72;1.73;;;22.60;99.90;;;;;;5035709;28;20048;-77
2023/08/13 11:56:17;;;;;;;7.40;2.20;;;22.50;99.90;;;;;;5047750;28;20206;-77
2023/08/13 11:58:44;;;;;;;4.65;1.50;;;22.60;99.90;;;;;;5054096;28;20155;-77
2023/08/13 12:01:11;;;;;;;6.75;1.70;;;22.70;99.90;;;;;;5012220;28;20136;-77
2023/08/13 12:03:38;;;;;;;7.35;1.73;;;22.70;99.90;;;;;;5040553;28;20033;-77
2023/08/13 12:06:08;;;;;;;5.75;1.77;;;22.70;99.90;;;;;;5034856;28;20060;-78
2023/08/13 12:08:34;;;;;;;7.43;1.88;;;22.70;99.90;;;;;;5067391;28;20135;-77
2023/08/13 12:11:00;;;;;;;6.60;1.73;;;22.60;99.90;;;;;;5054491;28;20317;-77
2023/08/13 12:13:27;;;;;;;5.65;1.65;;;22.40;99.90;;;;;;5081184;28;20058;-77
2023/08/13 12:15:54;;;;;;;7.85;1.90;;;22.30;99.90;;;;;;5083553;28;20044;-77
2023/08/13 12:18:19;;;;;;;4.68;1.60;;;22.20;99.90;;;;;;5079488;28;20063;-77
2023/08/13 12:20:45;;;;;;;6.65;1.65;;;22.10;99.90;;;;;;5068499;28;20115;-78
2023/08/13 12:23:11;;;;;;;9.02;1.88;;;22.00;99.90;;;;;;5050509;28;20059;-78
2023/08/13 12:25:37;;;;;;;6.65;1.70;;;22.00;99.90;;;;;;5030282;28;20135;-78
2023/08/13 12:28:03;;;;;;;7.53;1.50;;;22.10;99.90;;;;;;5062380;28;20045;-78
2023/08/13 12:30:29;;;;;;;7.07;1.75;;;22.20;99.90;;;;;;5083160;28;20032;-78
2023/08/13 12:32:55;;;;;;;4.57;1.60;;;22.30;99.90;;;;;;5080298;28;20056;-78
2023/08/13 12:35:24;;;;;;;6.95;1.50;;;22.40;99.90;;;;;;5065621;28;20096;-78
2023/08/13 12:37:50;;;;;;;4.97;1.40;;;22.50;99.90;;;;;;5083278;28;20190;-78
2023/08/13 12:40:16;;;;;;;4.50;1.30;;;22.50;99.90;;;;;;5083209;28;20046;-78